sensor_id;sensor_type;location;lat;lon;timestamp;P1;durP1;ratioP1;P2;durP2;ratioP2
51048;SDS011;37084;55.228;36.450;2023-04-25T00:01:15;12.75;;;6.97;;
51048;SDS011;37084;55.228;36.450;2023-04-25T00:04:16;13.93;;;8.02;;
51048;SDS011;37084;55.228;36.450;2023-04-25T00:07:18;15.38;;;7.05;;
51048;SDS011;37084;55.228;36.450;2023-04-25T00:10:20;14.13;;;6.45;;
51048;SDS011;37084;55.228;36.450;2023-04-25T00:13:21;12.02;;;6.18;;
51048;SDS011;37084;55.228;36.450;2023-04-25T00:16:23;10.73;;;6.90;;
51048;SDS011;37084;55.228;36.450;2023-04-25T00:19:24;11.80;;;6.53;;
51048;SDS011;37084;55.228;36.450;2023-04-25T00:22:27;14.27;;;6.75;;
51048;SDS011;37084;55.228;36.450;2023-04-25T00:25:28;13.13;;;6.20;;
51048;SDS011;37084;55.228;36.450;2023-04-25T00:28:30;11.82;;;6.72;;
51048;SDS011;37084;55.228;36.450;2023-04-25T00:31:31;13.02;;;6.57;;
51048;SDS011;37084;55.228;36.450;2023-04-25T00:34:33;12.52;;;6.28;;
51048;SDS011;37084;55.228;36.450;2023-04-25T00:37:34;9.70;;;6.00;;
51048;SDS011;37084;55.228;36.450;2023-04-25T00:40:35;15.10;;;6.43;;
51048;SDS011;37084;55.228;36.450;2023-04-25T00:43:37;11.70;;;6.20;;
51048;SDS011;37084;55.228;36.450;2023-04-25T00:46:38;13.63;;;7.20;;
51048;SDS011;37084;55.228;36.450;2023-04-25T00:49:40;12.63;;;6.40;;
51048;SDS011;37084;55.228;36.450;2023-04-25T00:52:43;11.10;;;6.00;;
51048;SDS011;37084;55.228;36.450;2023-04-25T00:55:45;12.23;;;6.22;;
51048;SDS011;37084;55.228;36.450;2023-04-25T00:58:48;11.63;;;7.28;;
51048;SDS011;37084;55.228;36.450;2023-04-25T01:01:50;12.65;;;6.78;;
51048;SDS011;37084;55.228;36.450;2023-04-25T01:04:52;12.32;;;6.63;;
51048;SDS011;37084;55.228;36.450;2023-04-25T01:07:53;8.55;;;6.28;;
51048;SDS011;37084;55.228;36.450;2023-04-25T01:10:54;10.88;;;5.85;;
51048;SDS011;37084;55.228;36.450;2023-04-25T01:13:56;8.90;;;5.85;;
51048;SDS011;37084;55.228;36.450;2023-04-25T01:16:59;13.30;;;6.30;;
51048;SDS011;37084;55.228;36.450;2023-04-25T01:20:02;10.10;;;5.78;;
51048;SDS011;37084;55.228;36.450;2023-04-25T01:23:06;10.00;;;6.05;;
51048;SDS011;37084;55.228;36.450;2023-04-25T01:26:10;10.98;;;5.57;;
51048;SDS011;37084;55.228;36.450;2023-04-25T01:29:12;8.30;;;5.78;;
51048;SDS011;37084;55.228;36.450;2023-04-25T01:32:15;11.35;;;5.72;;
51048;SDS011;37084;55.228;36.450;2023-04-25T01:35:16;9.07;;;5.82;;
51048;SDS011;37084;55.228;36.450;2023-04-25T01:38:17;10.85;;;6.75;;
51048;SDS011;37084;55.228;36.450;2023-04-25T01:41:19;11.32;;;6.20;;
51048;SDS011;37084;55.228;36.450;2023-04-25T01:44:21;10.82;;;5.70;;
51048;SDS011;37084;55.228;36.450;2023-04-25T01:47:22;10.80;;;6.38;;
51048;SDS011;37084;55.228;36.450;2023-04-25T01:50:23;11.38;;;6.18;;
51048;SDS011;37084;55.228;36.450;2023-04-25T01:53:25;8.88;;;6.05;;
51048;SDS011;37084;55.228;36.450;2023-04-25T01:56:31;10.55;;;6.18;;
51048;SDS011;37084;55.228;36.450;2023-04-25T01:59:34;9.90;;;6.22;;
51048;SDS011;37084;55.228;36.450;2023-04-25T02:03:01;10.88;;;6.32;;
51048;SDS011;37084;55.228;36.450;2023-04-25T02:06:06;13.98;;;6.10;;
51048;SDS011;37084;55.228;36.450;2023-04-25T02:09:12;10.40;;;6.55;;
51048;SDS011;37084;55.228;36.450;2023-04-25T02:12:18;10.48;;;5.93;;
51048;SDS011;37084;55.228;36.450;2023-04-25T02:15:46;12.10;;;6.82;;
51048;SDS011;37084;55.228;36.450;2023-04-25T02:18:52;12.02;;;6.75;;
51048;SDS011;37084;55.228;36.450;2023-04-25T02:21:54;11.82;;;6.38;;
51048;SDS011;37084;55.228;36.450;2023-04-25T02:24:57;11.52;;;7.10;;
51048;SDS011;37084;55.228;36.450;2023-04-25T02:27:59;10.13;;;6.80;;
51048;SDS011;37084;55.228;36.450;2023-04-25T02:31:00;12.90;;;6.75;;
51048;SDS011;37084;55.228;36.450;2023-04-25T02:34:02;10.68;;;6.63;;
51048;SDS011;37084;55.228;36.450;2023-04-25T02:37:03;13.45;;;6.93;;
51048;SDS011;37084;55.228;36.450;2023-04-25T02:40:05;9.90;;;6.35;;
51048;SDS011;37084;55.228;36.450;2023-04-25T02:43:07;10.57;;;6.78;;
51048;SDS011;37084;55.228;36.450;2023-04-25T02:46:08;10.77;;;6.65;;
51048;SDS011;37084;55.228;36.450;2023-04-25T02:49:10;9.65;;;6.10;;
51048;SDS011;37084;55.228;36.450;2023-04-25T02:52:12;11.50;;;6.30;;
51048;SDS011;37084;55.228;36.450;2023-04-25T02:55:14;13.35;;;6.55;;
51048;SDS011;37084;55.228;36.450;2023-04-25T02:58:17;10.38;;;6.28;;
51048;SDS011;37084;55.228;36.450;2023-04-25T03:01:24;12.90;;;7.55;;
51048;SDS011;37084;55.228;36.450;2023-04-25T03:04:25;13.43;;;6.97;;
51048;SDS011;37084;55.228;36.450;2023-04-25T03:07:27;12.27;;;6.63;;
51048;SDS011;37084;55.228;36.450;2023-04-25T03:10:28;13.15;;;6.68;;
51048;SDS011;37084;55.228;36.450;2023-04-25T03:13:33;11.50;;;7.55;;
51048;SDS011;37084;55.228;36.450;2023-04-25T03:16:35;12.02;;;6.70;;
51048;SDS011;37084;55.228;36.450;2023-04-25T03:19:36;9.63;;;5.30;;
51048;SDS011;37084;55.228;36.450;2023-04-25T03:22:37;10.27;;;4.20;;
51048;SDS011;37084;55.228;36.450;2023-04-25T03:25:39;5.47;;;3.40;;
51048;SDS011;37084;55.228;36.450;2023-04-25T03:28:41;11.23;;;6.18;;
51048;SDS011;37084;55.228;36.450;2023-04-25T03:31:43;10.10;;;5.90;;
51048;SDS011;37084;55.228;36.450;2023-04-25T03:34:44;11.98;;;5.72;;
51048;SDS011;37084;55.228;36.450;2023-04-25T03:37:45;10.57;;;6.28;;
51048;SDS011;37084;55.228;36.450;2023-04-25T03:40:52;11.27;;;6.45;;
51048;SDS011;37084;55.228;36.450;2023-04-25T03:44:01;10.10;;;6.10;;
51048;SDS011;37084;55.228;36.450;2023-04-25T03:47:02;9.57;;;6.10;;
51048;SDS011;37084;55.228;36.450;2023-04-25T03:50:04;8.80;;;6.28;;
51048;SDS011;37084;55.228;36.450;2023-04-25T03:53:06;12.45;;;6.20;;
51048;SDS011;37084;55.228;36.450;2023-04-25T03:56:28;8.88;;;6.30;;
51048;SDS011;37084;55.228;36.450;2023-04-25T03:59:36;11.10;;;6.88;;
51048;SDS011;37084;55.228;36.450;2023-04-25T04:02:38;13.10;;;6.75;;
51048;SDS011;37084;55.228;36.450;2023-04-25T04:05:40;13.23;;;6.78;;
51048;SDS011;37084;55.228;36.450;2023-04-25T04:08:41;12.07;;;6.85;;
51048;SDS011;37084;55.228;36.450;2023-04-25T04:11:44;14.57;;;7.78;;
51048;SDS011;37084;55.228;36.450;2023-04-25T04:14:46;11.00;;;6.47;;
51048;SDS011;37084;55.228;36.450;2023-04-25T04:17:48;11.00;;;6.30;;
51048;SDS011;37084;55.228;36.450;2023-04-25T04:20:49;11.50;;;6.70;;
51048;SDS011;37084;55.228;36.450;2023-04-25T04:23:51;11.27;;;6.70;;
51048;SDS011;37084;55.228;36.450;2023-04-25T04:26:54;8.70;;;6.22;;
51048;SDS011;37084;55.228;36.450;2023-04-25T04:30:23;11.15;;;6.65;;
51048;SDS011;37084;55.228;36.450;2023-04-25T04:33:32;11.68;;;6.85;;
51048;SDS011;37084;55.228;36.450;2023-04-25T04:36:36;9.43;;;6.20;;
51048;SDS011;37084;55.228;36.450;2023-04-25T04:39:38;10.23;;;6.40;;
51048;SDS011;37084;55.228;36.450;2023-04-25T04:42:59;11.50;;;6.85;;
51048;SDS011;37084;55.228;36.450;2023-04-25T04:46:30;14.52;;;6.43;;
51048;SDS011;37084;55.228;36.450;2023-04-25T04:50:04;9.52;;;6.40;;
51048;SDS011;37084;55.228;36.450;2023-04-25T04:53:30;17.80;;;6.78;;
51048;SDS011;37084;55.228;36.450;2023-04-25T04:56:56;14.07;;;7.18;;
51048;SDS011;37084;55.228;36.450;2023-04-25T05:00:13;8.98;;;6.18;;
51048;SDS011;37084;55.228;36.450;2023-04-25T05:03:51;13.95;;;7.10;;
51048;SDS011;37084;55.228;36.450;2023-04-25T05:07:15;12.82;;;7.15;;
51048;SDS011;37084;55.228;36.450;2023-04-25T05:10:33;9.02;;;7.05;;
51048;SDS011;37084;55.228;36.450;2023-04-25T05:13:52;10.85;;;6.70;;
51048;SDS011;37084;55.228;36.450;2023-04-25T05:17:14;9.98;;;6.28;;
51048;SDS011;37084;55.228;36.450;2023-04-25T05:20:38;10.13;;;6.78;;
51048;SDS011;37084;55.228;36.450;2023-04-25T05:23:42;11.82;;;6.95;;
51048;SDS011;37084;55.228;36.450;2023-04-25T05:27:01;11.93;;;6.43;;
51048;SDS011;37084;55.228;36.450;2023-04-25T05:30:23;11.43;;;6.75;;
51048;SDS011;37084;55.228;36.450;2023-04-25T05:33:40;14.70;;;7.20;;
51048;SDS011;37084;55.228;36.450;2023-04-25T05:36:41;13.32;;;6.18;;
51048;SDS011;37084;55.228;36.450;2023-04-25T05:39:43;12.57;;;6.95;;
51048;SDS011;37084;55.228;36.450;2023-04-25T05:42:58;10.18;;;6.70;;
51048;SDS011;37084;55.228;36.450;2023-04-25T05:46:17;17.90;;;6.13;;
51048;SDS011;37084;55.228;36.450;2023-04-25T05:49:41;11.60;;;6.32;;
51048;SDS011;37084;55.228;36.450;2023-04-25T05:53:01;8.18;;;4.95;;
51048;SDS011;37084;55.228;36.450;2023-04-25T05:56:06;9.55;;;5.90;;
51048;SDS011;37084;55.228;36.450;2023-04-25T05:59:07;8.57;;;5.50;;
51048;SDS011;37084;55.228;36.450;2023-04-25T06:02:09;8.45;;;4.90;;
51048;SDS011;37084;55.228;36.450;2023-04-25T06:05:12;9.95;;;5.70;;
51048;SDS011;37084;55.228;36.450;2023-04-25T06:08:13;8.00;;;5.05;;
51048;SDS011;37084;55.228;36.450;2023-04-25T06:11:15;10.63;;;4.75;;
51048;SDS011;37084;55.228;36.450;2023-04-25T06:14:17;7.95;;;5.00;;
51048;SDS011;37084;55.228;36.450;2023-04-25T06:17:22;8.70;;;5.30;;
51048;SDS011;37084;55.228;36.450;2023-04-25T06:20:25;10.18;;;5.38;;
51048;SDS011;37084;55.228;36.450;2023-04-25T06:23:29;10.93;;;5.78;;
51048;SDS011;37084;55.228;36.450;2023-04-25T06:26:37;9.60;;;4.75;;
51048;SDS011;37084;55.228;36.450;2023-04-25T06:29:40;10.25;;;5.30;;
51048;SDS011;37084;55.228;36.450;2023-04-25T06:32:41;10.57;;;5.03;;
51048;SDS011;37084;55.228;36.450;2023-04-25T06:35:43;8.35;;;4.80;;
51048;SDS011;37084;55.228;36.450;2023-04-25T06:38:46;8.00;;;4.55;;
51048;SDS011;37084;55.228;36.450;2023-04-25T06:41:48;8.35;;;4.70;;
51048;SDS011;37084;55.228;36.450;2023-04-25T06:45:10;8.05;;;4.13;;
51048;SDS011;37084;55.228;36.450;2023-04-25T06:48:11;10.75;;;4.50;;
51048;SDS011;37084;55.228;36.450;2023-04-25T06:51:12;8.52;;;3.90;;
51048;SDS011;37084;55.228;36.450;2023-04-25T06:54:17;5.47;;;3.28;;
51048;SDS011;37084;55.228;36.450;2023-04-25T06:57:29;6.05;;;3.22;;
51048;SDS011;37084;55.228;36.450;2023-04-25T07:00:38;5.93;;;3.53;;
51048;SDS011;37084;55.228;36.450;2023-04-25T07:03:40;4.00;;;3.13;;
51048;SDS011;37084;55.228;36.450;2023-04-25T07:06:48;7.65;;;3.03;;
51048;SDS011;37084;55.228;36.450;2023-04-25T07:09:52;8.10;;;3.35;;
51048;SDS011;37084;55.228;36.450;2023-04-25T07:12:55;7.00;;;3.30;;
51048;SDS011;37084;55.228;36.450;2023-04-25T07:15:56;7.78;;;3.30;;
51048;SDS011;37084;55.228;36.450;2023-04-25T07:18:58;7.00;;;3.28;;
51048;SDS011;37084;55.228;36.450;2023-04-25T07:22:02;5.93;;;3.55;;
51048;SDS011;37084;55.228;36.450;2023-04-25T07:25:05;11.45;;;4.30;;
51048;SDS011;37084;55.228;36.450;2023-04-25T07:28:07;4.95;;;3.35;;
51048;SDS011;37084;55.228;36.450;2023-04-25T07:31:10;5.75;;;3.33;;
51048;SDS011;37084;55.228;36.450;2023-04-25T07:34:11;4.82;;;3.08;;
51048;SDS011;37084;55.228;36.450;2023-04-25T07:37:13;7.57;;;2.80;;
51048;SDS011;37084;55.228;36.450;2023-04-25T07:40:29;5.32;;;2.88;;
51048;SDS011;37084;55.228;36.450;2023-04-25T07:43:37;7.55;;;3.33;;
51048;SDS011;37084;55.228;36.450;2023-04-25T07:46:39;9.82;;;3.15;;
51048;SDS011;37084;55.228;36.450;2023-04-25T07:49:41;5.43;;;3.08;;
51048;SDS011;37084;55.228;36.450;2023-04-25T07:52:43;7.45;;;3.10;;
51048;SDS011;37084;55.228;36.450;2023-04-25T07:55:53;6.82;;;3.28;;
51048;SDS011;37084;55.228;36.450;2023-04-25T07:58:55;6.03;;;3.10;;
51048;SDS011;37084;55.228;36.450;2023-04-25T08:01:58;6.15;;;3.00;;
51048;SDS011;37084;55.228;36.450;2023-04-25T08:05:00;4.82;;;3.17;;
51048;SDS011;37084;55.228;36.450;2023-04-25T08:08:04;6.07;;;3.17;;
51048;SDS011;37084;55.228;36.450;2023-04-25T08:11:07;5.95;;;3.40;;
51048;SDS011;37084;55.228;36.450;2023-04-25T08:14:09;6.50;;;3.20;;
51048;SDS011;37084;55.228;36.450;2023-04-25T08:17:11;4.57;;;3.03;;
51048;SDS011;37084;55.228;36.450;2023-04-25T08:20:15;6.32;;;3.30;;
51048;SDS011;37084;55.228;36.450;2023-04-25T08:23:17;6.47;;;3.08;;
51048;SDS011;37084;55.228;36.450;2023-04-25T08:26:36;5.78;;;3.42;;
51048;SDS011;37084;55.228;36.450;2023-04-25T08:29:41;8.57;;;3.08;;
51048;SDS011;37084;55.228;36.450;2023-04-25T08:32:43;7.75;;;3.08;;
51048;SDS011;37084;55.228;36.450;2023-04-25T08:35:56;4.10;;;2.83;;
51048;SDS011;37084;55.228;36.450;2023-04-25T08:38:59;5.30;;;2.90;;
51048;SDS011;37084;55.228;36.450;2023-04-25T08:42:05;4.80;;;2.85;;
51048;SDS011;37084;55.228;36.450;2023-04-25T08:45:11;7.85;;;3.25;;
51048;SDS011;37084;55.228;36.450;2023-04-25T08:48:14;6.65;;;3.10;;
51048;SDS011;37084;55.228;36.450;2023-04-25T08:51:22;7.57;;;2.92;;
51048;SDS011;37084;55.228;36.450;2023-04-25T08:54:29;6.63;;;3.40;;
51048;SDS011;37084;55.228;36.450;2023-04-25T08:57:32;5.60;;;2.92;;
51048;SDS011;37084;55.228;36.450;2023-04-25T09:00:34;7.40;;;3.20;;
51048;SDS011;37084;55.228;36.450;2023-04-25T09:03:36;6.38;;;2.85;;
51048;SDS011;37084;55.228;36.450;2023-04-25T09:06:37;5.57;;;2.80;;
51048;SDS011;37084;55.228;36.450;2023-04-25T09:09:38;4.88;;;2.92;;
51048;SDS011;37084;55.228;36.450;2023-04-25T09:12:40;6.75;;;2.70;;
51048;SDS011;37084;55.228;36.450;2023-04-25T09:15:47;5.30;;;3.03;;
51048;SDS011;37084;55.228;36.450;2023-04-25T09:19:03;3.58;;;2.38;;
51048;SDS011;37084;55.228;36.450;2023-04-25T09:22:06;3.83;;;2.40;;
51048;SDS011;37084;55.228;36.450;2023-04-25T09:25:12;5.43;;;2.53;;
51048;SDS011;37084;55.228;36.450;2023-04-25T09:28:25;3.30;;;2.58;;
51048;SDS011;37084;55.228;36.450;2023-04-25T09:31:27;4.57;;;2.83;;
51048;SDS011;37084;55.228;36.450;2023-04-25T09:34:38;4.40;;;2.50;;
51048;SDS011;37084;55.228;36.450;2023-04-25T09:37:48;5.15;;;2.88;;
51048;SDS011;37084;55.228;36.450;2023-04-25T09:41:08;2.83;;;2.53;;
51048;SDS011;37084;55.228;36.450;2023-04-25T09:44:23;3.58;;;2.22;;
51048;SDS011;37084;55.228;36.450;2023-04-25T09:47:26;4.85;;;2.65;;
51048;SDS011;37084;55.228;36.450;2023-04-25T09:53:40;4.50;;;2.15;;
51048;SDS011;37084;55.228;36.450;2023-04-25T09:57:15;2.67;;;1.77;;
51048;SDS011;37084;55.228;36.450;2023-04-25T10:00:27;4.45;;;2.28;;
51048;SDS011;37084;55.228;36.450;2023-04-25T10:03:32;3.88;;;2.05;;
51048;SDS011;37084;55.228;36.450;2023-04-25T10:06:55;4.00;;;2.03;;
51048;SDS011;37084;55.228;36.450;2023-04-25T10:10:01;2.70;;;1.58;;
51048;SDS011;37084;55.228;36.450;2023-04-25T10:13:07;3.17;;;1.50;;
51048;SDS011;37084;55.228;36.450;2023-04-25T10:16:08;3.22;;;1.83;;
51048;SDS011;37084;55.228;36.450;2023-04-25T10:19:10;5.57;;;2.03;;
51048;SDS011;37084;55.228;36.450;2023-04-25T10:22:13;3.30;;;1.70;;
51048;SDS011;37084;55.228;36.450;2023-04-25T10:25:19;3.50;;;1.67;;
51048;SDS011;37084;55.228;36.450;2023-04-25T10:28:20;3.63;;;1.67;;
51048;SDS011;37084;55.228;36.450;2023-04-25T10:31:21;2.95;;;1.80;;
51048;SDS011;37084;55.228;36.450;2023-04-25T10:38:22;3.72;;;1.70;;
51048;SDS011;37084;55.228;36.450;2023-04-25T10:41:06;3.03;;;1.92;;
51048;SDS011;37084;55.228;36.450;2023-04-25T10:44:09;16.73;;;2.97;;
51048;SDS011;37084;55.228;36.450;2023-04-25T10:47:10;4.93;;;2.25;;
51048;SDS011;37084;55.228;36.450;2023-04-25T10:50:13;3.90;;;1.83;;
51048;SDS011;37084;55.228;36.450;2023-04-25T10:53:16;5.57;;;2.08;;
51048;SDS011;37084;55.228;36.450;2023-04-25T10:56:21;3.40;;;1.75;;
51048;SDS011;37084;55.228;36.450;2023-04-25T10:59:24;4.28;;;1.88;;
51048;SDS011;37084;55.228;36.450;2023-04-25T11:02:26;2.53;;;1.70;;
51048;SDS011;37084;55.228;36.450;2023-04-25T11:05:32;3.88;;;1.88;;
51048;SDS011;37084;55.228;36.450;2023-04-25T11:08:40;2.63;;;1.60;;
51048;SDS011;37084;55.228;36.450;2023-04-25T11:11:58;4.55;;;1.77;;
51048;SDS011;37084;55.228;36.450;2023-04-25T11:15:04;4.70;;;2.03;;
51048;SDS011;37084;55.228;36.450;2023-04-25T11:18:07;4.90;;;1.90;;
51048;SDS011;37084;55.228;36.450;2023-04-25T11:21:08;2.90;;;1.70;;
51048;SDS011;37084;55.228;36.450;2023-04-25T11:24:10;4.20;;;1.80;;
51048;SDS011;37084;55.228;36.450;2023-04-25T11:27:11;5.75;;;2.05;;
51048;SDS011;37084;55.228;36.450;2023-04-25T11:30:13;2.30;;;2.00;;
51048;SDS011;37084;55.228;36.450;2023-04-25T11:33:22;2.67;;;1.52;;
51048;SDS011;37084;55.228;36.450;2023-04-25T11:36:24;5.70;;;2.17;;
51048;SDS011;37084;55.228;36.450;2023-04-25T11:39:26;4.20;;;2.00;;
51048;SDS011;37084;55.228;36.450;2023-04-25T11:42:28;3.13;;;1.70;;
51048;SDS011;37084;55.228;36.450;2023-04-25T11:45:33;3.58;;;1.77;;
51048;SDS011;37084;55.228;36.450;2023-04-25T11:48:38;3.05;;;1.70;;
51048;SDS011;37084;55.228;36.450;2023-04-25T11:51:40;2.60;;;1.58;;
51048;SDS011;37084;55.228;36.450;2023-04-25T11:54:44;2.72;;;2.03;;
51048;SDS011;37084;55.228;36.450;2023-04-25T11:57:46;3.58;;;1.73;;
51048;SDS011;37084;55.228;36.450;2023-04-25T12:00:51;4.60;;;1.75;;
51048;SDS011;37084;55.228;36.450;2023-04-25T12:03:52;2.50;;;1.88;;
51048;SDS011;37084;55.228;36.450;2023-04-25T12:06:54;3.65;;;2.13;;
51048;SDS011;37084;55.228;36.450;2023-04-25T12:09:56;3.03;;;1.92;;
51048;SDS011;37084;55.228;36.450;2023-04-25T12:12:57;3.25;;;1.83;;
51048;SDS011;37084;55.228;36.450;2023-04-25T12:15:59;3.65;;;2.50;;
51048;SDS011;37084;55.228;36.450;2023-04-25T12:19:01;2.35;;;2.00;;
51048;SDS011;37084;55.228;36.450;2023-04-25T12:22:18;4.50;;;1.75;;
51048;SDS011;37084;55.228;36.450;2023-04-25T12:25:40;3.55;;;2.03;;
51048;SDS011;37084;55.228;36.450;2023-04-25T12:28:44;5.78;;;2.03;;
51048;SDS011;37084;55.228;36.450;2023-04-25T12:31:47;3.00;;;1.77;;
51048;SDS011;37084;55.228;36.450;2023-04-25T12:34:49;3.25;;;1.98;;
51048;SDS011;37084;55.228;36.450;2023-04-25T12:37:51;2.80;;;1.88;;
51048;SDS011;37084;55.228;36.450;2023-04-25T12:40:52;4.68;;;1.73;;
51048;SDS011;37084;55.228;36.450;2023-04-25T12:43:54;2.45;;;1.60;;
51048;SDS011;37084;55.228;36.450;2023-04-25T12:46:55;3.45;;;1.70;;
51048;SDS011;37084;55.228;36.450;2023-04-25T12:49:56;3.47;;;1.70;;
51048;SDS011;37084;55.228;36.450;2023-04-25T12:52:58;3.65;;;2.10;;
51048;SDS011;37084;55.228;36.450;2023-04-25T12:55:59;3.92;;;1.85;;
51048;SDS011;37084;55.228;36.450;2023-04-25T12:59:00;2.45;;;1.83;;
51048;SDS011;37084;55.228;36.450;2023-04-25T13:02:03;3.08;;;1.92;;
51048;SDS011;37084;55.228;36.450;2023-04-25T13:05:05;3.40;;;1.80;;
51048;SDS011;37084;55.228;36.450;2023-04-25T13:08:06;2.75;;;1.60;;
51048;SDS011;37084;55.228;36.450;2023-04-25T13:11:08;3.67;;;2.03;;
51048;SDS011;37084;55.228;36.450;2023-04-25T13:14:09;3.58;;;1.92;;
51048;SDS011;37084;55.228;36.450;2023-04-25T13:17:10;3.10;;;1.88;;
51048;SDS011;37084;55.228;36.450;2023-04-25T13:20:12;5.45;;;2.08;;
51048;SDS011;37084;55.228;36.450;2023-04-25T13:23:14;3.70;;;2.00;;
51048;SDS011;37084;55.228;36.450;2023-04-25T13:26:15;4.70;;;2.33;;
51048;SDS011;37084;55.228;36.450;2023-04-25T13:29:16;2.50;;;2.00;;
51048;SDS011;37084;55.228;36.450;2023-04-25T13:32:18;3.25;;;2.22;;
51048;SDS011;37084;55.228;36.450;2023-04-25T13:35:19;4.40;;;2.05;;
51048;SDS011;37084;55.228;36.450;2023-04-25T13:38:21;2.85;;;1.83;;
51048;SDS011;37084;55.228;36.450;2023-04-25T13:41:23;3.80;;;2.20;;
51048;SDS011;37084;55.228;36.450;2023-04-25T13:44:24;3.75;;;2.10;;
51048;SDS011;37084;55.228;36.450;2023-04-25T13:47:26;3.92;;;2.03;;
51048;SDS011;37084;55.228;36.450;2023-04-25T13:50:27;3.15;;;2.05;;
51048;SDS011;37084;55.228;36.450;2023-04-25T13:53:28;3.65;;;1.90;;
51048;SDS011;37084;55.228;36.450;2023-04-25T13:56:29;3.40;;;2.08;;
51048;SDS011;37084;55.228;36.450;2023-04-25T13:59:30;2.30;;;1.80;;
51048;SDS011;37084;55.228;36.450;2023-04-25T14:02:32;3.67;;;1.98;;
51048;SDS011;37084;55.228;36.450;2023-04-25T14:05:34;2.78;;;2.03;;
51048;SDS011;37084;55.228;36.450;2023-04-25T14:08:39;4.03;;;1.65;;
51048;SDS011;37084;55.228;36.450;2023-04-25T14:11:41;4.65;;;2.03;;
51048;SDS011;37084;55.228;36.450;2023-04-25T14:14:42;4.32;;;2.00;;
51048;SDS011;37084;55.228;36.450;2023-04-25T14:17:43;3.47;;;1.83;;
51048;SDS011;37084;55.228;36.450;2023-04-25T14:20:46;3.92;;;1.80;;
51048;SDS011;37084;55.228;36.450;2023-04-25T14:23:48;6.00;;;2.10;;
51048;SDS011;37084;55.228;36.450;2023-04-25T14:26:49;5.75;;;2.22;;
51048;SDS011;37084;55.228;36.450;2023-04-25T14:29:50;3.20;;;1.90;;
51048;SDS011;37084;55.228;36.450;2023-04-25T14:32:51;3.40;;;1.80;;
51048;SDS011;37084;55.228;36.450;2023-04-25T14:35:53;3.15;;;2.22;;
51048;SDS011;37084;55.228;36.450;2023-04-25T14:38:54;3.80;;;2.20;;
51048;SDS011;37084;55.228;36.450;2023-04-25T14:41:55;2.70;;;2.20;;
51048;SDS011;37084;55.228;36.450;2023-04-25T14:44:57;4.72;;;2.53;;
51048;SDS011;37084;55.228;36.450;2023-04-25T14:47:58;4.32;;;2.75;;
51048;SDS011;37084;55.228;36.450;2023-04-25T14:51:00;6.22;;;2.38;;
51048;SDS011;37084;55.228;36.450;2023-04-25T14:54:01;4.85;;;2.17;;
51048;SDS011;37084;55.228;36.450;2023-04-25T14:57:02;6.40;;;2.38;;
51048;SDS011;37084;55.228;36.450;2023-04-25T15:00:04;6.05;;;2.45;;
51048;SDS011;37084;55.228;36.450;2023-04-25T15:03:09;3.67;;;1.95;;
51048;SDS011;37084;55.228;36.450;2023-04-25T15:06:13;3.95;;;2.70;;
51048;SDS011;37084;55.228;36.450;2023-04-25T15:09:15;3.88;;;2.33;;
51048;SDS011;37084;55.228;36.450;2023-04-25T15:12:17;3.28;;;2.10;;
51048;SDS011;37084;55.228;36.450;2023-04-25T15:15:18;7.82;;;2.17;;
51048;SDS011;37084;55.228;36.450;2023-04-25T15:18:20;5.85;;;2.20;;
51048;SDS011;37084;55.228;36.450;2023-04-25T15:21:25;3.63;;;2.20;;
51048;SDS011;37084;55.228;36.450;2023-04-25T15:24:27;5.05;;;2.30;;
51048;SDS011;37084;55.228;36.450;2023-04-25T15:27:28;10.85;;;2.10;;
51048;SDS011;37084;55.228;36.450;2023-04-25T15:30:29;4.00;;;2.13;;
51048;SDS011;37084;55.228;36.450;2023-04-25T15:33:30;3.88;;;2.00;;
51048;SDS011;37084;55.228;36.450;2023-04-25T15:36:32;3.97;;;2.00;;
51048;SDS011;37084;55.228;36.450;2023-04-25T15:39:34;3.65;;;2.00;;
51048;SDS011;37084;55.228;36.450;2023-04-25T15:42:35;2.90;;;1.73;;
51048;SDS011;37084;55.228;36.450;2023-04-25T15:45:37;2.13;;;1.90;;
51048;SDS011;37084;55.228;36.450;2023-04-25T15:48:38;4.15;;;2.22;;
51048;SDS011;37084;55.228;36.450;2023-04-25T15:51:39;5.93;;;2.13;;
51048;SDS011;37084;55.228;36.450;2023-04-25T15:54:40;2.10;;;1.73;;
51048;SDS011;37084;55.228;36.450;2023-04-25T15:57:41;2.83;;;2.22;;
51048;SDS011;37084;55.228;36.450;2023-04-25T16:00:43;4.40;;;2.17;;
51048;SDS011;37084;55.228;36.450;2023-04-25T16:03:49;4.93;;;2.22;;
51048;SDS011;37084;55.228;36.450;2023-04-25T16:06:52;4.25;;;2.10;;
51048;SDS011;37084;55.228;36.450;2023-04-25T16:09:54;5.88;;;2.60;;
51048;SDS011;37084;55.228;36.450;2023-04-25T16:12:55;4.53;;;1.90;;
51048;SDS011;37084;55.228;36.450;2023-04-25T16:15:56;3.33;;;2.15;;
51048;SDS011;37084;55.228;36.450;2023-04-25T16:18:58;3.45;;;2.10;;
51048;SDS011;37084;55.228;36.450;2023-04-25T16:21:59;5.15;;;2.22;;
51048;SDS011;37084;55.228;36.450;2023-04-25T16:25:02;4.30;;;2.45;;
51048;SDS011;37084;55.228;36.450;2023-04-25T16:28:07;4.53;;;2.63;;
51048;SDS011;37084;55.228;36.450;2023-04-25T16:31:08;5.93;;;2.40;;
51048;SDS011;37084;55.228;36.450;2023-04-25T16:34:09;3.45;;;2.38;;
51048;SDS011;37084;55.228;36.450;2023-04-25T16:37:10;5.25;;;2.35;;
51048;SDS011;37084;55.228;36.450;2023-04-25T16:40:12;4.53;;;2.25;;
51048;SDS011;37084;55.228;36.450;2023-04-25T16:43:13;5.03;;;2.35;;
51048;SDS011;37084;55.228;36.450;2023-04-25T16:46:16;5.13;;;2.05;;
51048;SDS011;37084;55.228;36.450;2023-04-25T16:49:19;5.45;;;2.10;;
51048;SDS011;37084;55.228;36.450;2023-04-25T16:52:20;3.78;;;2.50;;
51048;SDS011;37084;55.228;36.450;2023-04-25T16:55:23;4.15;;;2.90;;
51048;SDS011;37084;55.228;36.450;2023-04-25T16:58:24;3.75;;;2.67;;
51048;SDS011;37084;55.228;36.450;2023-04-25T17:01:26;3.95;;;2.40;;
51048;SDS011;37084;55.228;36.450;2023-04-25T17:04:28;4.82;;;2.42;;
51048;SDS011;37084;55.228;36.450;2023-04-25T17:07:29;3.90;;;2.45;;
51048;SDS011;37084;55.228;36.450;2023-04-25T17:10:30;4.70;;;2.83;;
51048;SDS011;37084;55.228;36.450;2023-04-25T17:13:31;3.90;;;2.30;;
51048;SDS011;37084;55.228;36.450;2023-04-25T17:16:33;6.32;;;2.72;;
51048;SDS011;37084;55.228;36.450;2023-04-25T17:19:36;6.57;;;2.80;;
51048;SDS011;37084;55.228;36.450;2023-04-25T17:22:37;5.25;;;2.50;;
51048;SDS011;37084;55.228;36.450;2023-04-25T17:25:38;8.57;;;2.60;;
51048;SDS011;37084;55.228;36.450;2023-04-25T17:28:40;5.50;;;2.83;;
51048;SDS011;37084;55.228;36.450;2023-04-25T17:31:44;5.38;;;2.80;;
51048;SDS011;37084;55.228;36.450;2023-04-25T17:34:46;4.25;;;2.53;;
51048;SDS011;37084;55.228;36.450;2023-04-25T17:37:48;4.80;;;2.25;;
51048;SDS011;37084;55.228;36.450;2023-04-25T17:40:51;3.47;;;2.58;;
51048;SDS011;37084;55.228;36.450;2023-04-25T17:43:52;5.55;;;2.78;;
51048;SDS011;37084;55.228;36.450;2023-04-25T17:46:53;12.50;;;3.00;;
51048;SDS011;37084;55.228;36.450;2023-04-25T17:49:54;5.85;;;2.67;;
51048;SDS011;37084;55.228;36.450;2023-04-25T17:52:56;5.68;;;2.83;;
51048;SDS011;37084;55.228;36.450;2023-04-25T17:55:57;7.25;;;2.80;;
51048;SDS011;37084;55.228;36.450;2023-04-25T17:58:59;6.60;;;2.65;;
51048;SDS011;37084;55.228;36.450;2023-04-25T18:02:00;3.38;;;2.28;;
51048;SDS011;37084;55.228;36.450;2023-04-25T18:05:02;4.22;;;2.67;;
51048;SDS011;37084;55.228;36.450;2023-04-25T18:08:09;6.53;;;2.78;;
51048;SDS011;37084;55.228;36.450;2023-04-25T18:11:10;6.10;;;3.10;;
51048;SDS011;37084;55.228;36.450;2023-04-25T18:14:12;7.53;;;3.58;;
51048;SDS011;37084;55.228;36.450;2023-04-25T18:17:14;6.93;;;3.58;;